Аэропорт: Кокшетау. Кокшетау

ICAO: UACK

METAR:
2019-09-21 15:30:00
UACK 211530Z 11002MPS 9999 -RA OVC073 12/07 Q1014 NOSIG RMK QFE737/0982
METAR:
2019-09-21 11:38:00
TAF UACK 211138Z 2112/2121 21005MPS 9999 SCT030 BKN100 TEMPO 2112/2118 24006G11MPS